Time;durP1;ratioP1;P1;durP2;ratioP2;P2;SDS_P1;SDS_P2;PMS_P1;PMS_P2;Temp;Humidity;BMP_temperature;BMP_pressure;BME280_temperature;BME280_humidity;BME280_pressure;Samples;Min_cycle;Max_cycle;Signal;HPM_P1;HPM_P2
2022/07/05 00:00:14;;;;;;;8.50;1.00;;;;;;;16.48;100.00;101778.03;6202067;28;20054;-78
2022/07/05 00:03:15;;;;;;;3.28;1.00;;;;;;;16.43;100.00;101776.63;6202139;28;20057;-78
2022/07/05 00:06:16;;;;;;;1.45;1.00;;;;;;;16.34;100.00;101774.53;6201818;28;20054;-78
2022/07/05 00:09:18;;;;;;;2.17;1.00;;;;;;;16.34;100.00;101778.03;6201894;28;20383;-78
2022/07/05 00:12:23;;;;;;;1.75;1.08;;;;;;;16.34;100.00;101780.69;6201649;28;20050;-78
2022/07/05 00:15:24;;;;;;;1.17;0.88;;;;;;;16.35;100.00;101777.09;6202184;28;20053;-78
2022/07/05 00:18:25;;;;;;;1.00;0.90;;;;;;;16.41;100.00;101787.34;6201993;28;20269;-78
2022/07/05 00:21:27;;;;;;;2.30;1.10;;;;;;;16.44;100.00;101780.97;6199926;28;20046;-78
2022/07/05 00:24:28;;;;;;;2.30;1.05;;;;;;;16.39;100.00;101775.09;6201233;28;20050;-78
2022/07/05 00:27:31;;;;;;;1.48;1.10;;;;;;;16.36;100.00;101775.31;6200526;28;20050;-78
2022/07/05 00:30:32;;;;;;;1.48;1.20;;;;;;;16.29;100.00;101780.13;6200566;28;20054;-78
2022/07/05 00:33:33;;;;;;;2.92;1.20;;;;;;;16.20;100.00;101776.22;6200367;28;20407;-78
2022/07/05 00:36:35;;;;;;;1.73;1.13;;;;;;;16.14;100.00;101783.72;6200859;28;20053;-78
2022/07/05 00:39:36;;;;;;;1.67;1.02;;;;;;;16.13;100.00;101769.59;6200806;28;20075;-78
2022/07/05 00:42:39;;;;;;;3.63;1.10;;;;;;;16.13;100.00;101774.91;6200740;28;20054;-78
2022/07/05 00:45:40;;;;;;;5.30;1.73;;;;;;;16.07;100.00;101779.69;6200890;28;20042;-77
2022/07/05 00:48:42;;;;;;;1.00;0.90;;;;;;;16.02;100.00;101779.13;6201115;28;20053;-78
2022/07/05 00:51:43;;;;;;;1.10;0.90;;;;;;;15.96;100.00;101777.69;6198480;28;20046;-78
2022/07/05 00:54:44;;;;;;;3.25;0.70;;;;;;;16.01;100.00;101775.63;6200231;28;20046;-78
2022/07/05 00:57:47;;;;;;;2.35;1.27;;;;;;;16.02;100.00;101779.97;6199730;28;20087;-78
2022/07/05 01:00:48;;;;;;;2.75;1.13;;;;;;;15.95;100.00;101784.81;6200482;28;20046;-78
2022/07/05 01:03:50;;;;;;;0.73;0.73;;;;;;;15.86;100.00;101780.03;6200051;28;20050;-78
2022/07/05 01:06:53;;;;;;;1.75;1.25;;;;;;;15.83;100.00;101777.56;6200487;28;20050;-77
2022/07/05 01:09:55;;;;;;;4.10;1.52;;;;;;;15.78;100.00;101774.34;6199777;28;20134;-77
2022/07/05 01:12:58;;;;;;;2.97;1.55;;;;;;;15.72;100.00;101775.56;6202525;28;20057;-80
2022/07/05 01:16:00;;;;;;;1.40;1.05;;;;;;;15.71;100.00;101770.31;6201790;28;20399;-79
2022/07/05 01:19:01;;;;;;;2.30;1.23;;;;;;;15.66;100.00;101772.41;6202700;28;20049;-80
2022/07/05 01:22:04;;;;;;;3.17;1.10;;;;;;;15.62;100.00;101779.63;6201473;28;20057;-80
2022/07/05 01:25:08;;;;;;;2.38;1.27;;;;;;;15.62;100.00;101776.97;6178353;28;20055;-80
2022/07/05 01:28:09;;;;;;;2.70;1.45;;;;;;;15.59;100.00;101776.31;6178287;28;20050;-80
2022/07/05 01:31:11;;;;;;;4.45;1.60;;;;;;;15.55;100.00;101772.16;6178120;28;20067;-80
2022/07/05 01:34:12;;;;;;;1.48;1.08;;;;;;;15.45;100.00;101777.13;6178105;28;20055;-80
2022/07/05 01:37:14;;;;;;;0.98;0.98;;;;;;;15.39;100.00;101778.31;6178036;28;20411;-80
2022/07/05 01:40:17;;;;;;;0.70;0.63;;;;;;;15.33;100.00;101773.38;6178267;28;20439;-79
2022/07/05 01:43:19;;;;;;;1.23;1.00;;;;;;;15.26;100.00;101776.44;6177834;28;20057;-80
2022/07/05 01:46:23;;;;;;;0.98;0.95;;;;;;;15.20;100.00;101778.50;6177272;28;20086;-80
2022/07/05 01:49:27;;;;;;;3.17;1.05;;;;;;;15.19;100.00;101775.94;6178098;28;20268;-79
2022/07/05 01:52:30;;;;;;;3.15;0.88;;;;;;;15.17;100.00;101783.09;6178288;28;20051;-80
2022/07/05 01:55:33;;;;;;;1.58;1.17;;;;;;;15.16;100.00;101778.75;6187059;28;20046;-80
2022/07/05 01:58:36;;;;;;;3.50;1.42;;;;;;;15.12;100.00;101777.22;6201804;28;20477;-78
2022/07/05 02:01:39;;;;;;;1.33;1.10;;;;;;;15.08;100.00;101780.97;6201036;28;20046;-80
2022/07/05 02:04:41;;;;;;;1.33;1.08;;;;;;;15.04;100.00;101771.53;6201479;28;20410;-80
2022/07/05 02:07:47;;;;;;;3.40;0.88;;;;;;;15.03;100.00;101775.06;6201874;28;20050;-80
2022/07/05 02:10:50;;;;;;;1.23;1.00;;;;;;;14.98;100.00;101768.25;6201779;28;20515;-80
2022/07/05 02:13:51;;;;;;;5.68;1.45;;;;;;;14.95;100.00;101776.38;6201939;28;20054;-80
2022/07/05 02:16:52;;;;;;;2.13;1.10;;;;;;;14.98;100.00;101776.19;6201833;28;20062;-79
2022/07/05 02:19:54;;;;;;;2.45;1.10;;;;;;;14.90;100.00;101783.72;6205971;28;20085;-80
2022/07/05 02:22:55;;;;;;;1.52;1.30;;;;;;;14.82;100.00;101783.28;6195026;28;20059;-79
2022/07/05 02:25:58;;;;;;;1.40;0.82;;;;;;;14.85;100.00;101782.25;6194589;28;20054;-80
2022/07/05 02:29:01;;;;;;;2.10;1.20;;;;;;;14.85;100.00;101783.13;6206230;28;20525;-79
2022/07/05 02:32:02;;;;;;;6.80;1.30;;;;;;;14.88;100.00;101784.72;6201133;28;20061;-80
2022/07/05 02:35:04;;;;;;;2.65;1.20;;;;;;;14.95;100.00;101788.75;6205586;28;20057;-80
2022/07/05 02:38:06;;;;;;;3.15;1.50;;;;;;;14.93;100.00;101790.63;6205312;28;20053;-80
2022/07/05 02:41:10;;;;;;;1.83;1.40;;;;;;;14.93;100.00;101794.13;6205220;28;20058;-79
2022/07/05 02:44:11;;;;;;;2.30;1.70;;;;;;;14.94;100.00;101787.91;6205651;28;20047;-79
2022/07/05 02:47:12;;;;;;;2.80;1.23;;;;;;;14.96;100.00;101788.66;6205536;28;20688;-79
2022/07/05 02:50:14;;;;;;;1.95;1.20;;;;;;;14.98;100.00;101788.56;6205282;28;20490;-80
2022/07/05 02:53:15;;;;;;;2.60;1.35;;;;;;;15.02;100.00;101791.91;6205528;28;20050;-80
2022/07/05 02:56:18;;;;;;;1.73;1.08;;;;;;;15.00;100.00;101797.31;6205432;28;20145;-79
2022/07/05 02:59:19;;;;;;;2.63;1.10;;;;;;;15.00;100.00;101805.25;6205493;28;20057;-80
2022/07/05 03:02:21;;;;;;;3.63;1.50;;;;;;;14.96;100.00;101795.75;6189345;28;20055;-80
2022/07/05 03:05:22;;;;;;;1.15;0.93;;;;;;;14.93;100.00;101795.91;6180943;28;20051;-80
2022/07/05 03:08:24;;;;;;;1.38;1.27;;;;;;;14.92;100.00;101799.50;6181344;28;20054;-80
2022/07/05 03:11:27;;;;;;;2.42;1.30;;;;;;;14.94;100.00;101802.91;6180935;28;20062;-79
2022/07/05 03:14:28;;;;;;;4.32;1.73;;;;;;;14.92;100.00;101802.16;6203109;28;20045;-80
2022/07/05 03:17:30;;;;;;;4.82;1.50;;;;;;;14.90;100.00;101807.53;6211047;28;20426;-79
2022/07/05 03:20:31;;;;;;;1.50;1.30;;;;;;;14.85;100.00;101806.94;6202997;28;20054;-79
2022/07/05 03:23:32;;;;;;;3.22;1.58;;;;;;;14.86;100.00;101807.78;6204572;28;20473;-80
2022/07/05 03:26:35;;;;;;;5.60;2.50;;;;;;;14.84;100.00;101802.56;6203481;28;20526;-80
2022/07/05 03:29:36;;;;;;;2.38;1.50;;;;;;;14.81;100.00;101807.19;6210184;28;20130;-80
2022/07/05 03:32:38;;;;;;;5.22;1.67;;;;;;;14.78;100.00;101800.25;6215982;28;20042;-79
2022/07/05 03:35:39;;;;;;;2.30;1.50;;;;;;;14.77;100.00;101803.84;6215927;28;20057;-80
2022/07/05 03:38:41;;;;;;;1.70;1.20;;;;;;;14.69;100.00;101806.91;6213864;28;20042;-79
2022/07/05 03:41:44;;;;;;;2.97;1.55;;;;;;;14.65;100.00;101812.44;6215493;28;20502;-79
2022/07/05 03:44:45;;;;;;;3.25;1.90;;;;;;;14.65;100.00;101812.44;6213319;28;20049;-79
2022/07/05 03:47:46;;;;;;;3.28;2.28;;;;;;;14.62;100.00;101812.59;6214203;28;20665;-79
2022/07/05 03:50:48;;;;;;;5.43;1.50;;;;;;;14.62;100.00;101813.44;6212083;28;20057;-79
2022/07/05 03:53:49;;;;;;;4.18;1.40;;;;;;;14.58;100.00;101822.50;6214904;28;20069;-80
2022/07/05 03:56:52;;;;;;;1.88;1.40;;;;;;;14.55;100.00;101825.31;6205733;28;20057;-80
2022/07/05 03:59:53;;;;;;;3.25;1.35;;;;;;;14.56;100.00;101820.88;6203998;28;20049;-79
2022/07/05 04:02:55;;;;;;;2.35;1.33;;;;;;;14.65;100.00;101825.66;6203544;28;20494;-80
2022/07/05 04:05:56;;;;;;;1.90;1.40;;;;;;;14.67;100.00;101826.41;6203255;28;20061;-80
2022/07/05 04:08:57;;;;;;;2.38;1.20;;;;;;;14.68;100.00;101820.22;6203532;28;20057;-79
2022/07/05 04:12:00;;;;;;;3.05;1.35;;;;;;;14.70;100.00;101818.34;6203358;28;20046;-79
2022/07/05 04:15:01;;;;;;;2.28;1.33;;;;;;;14.70;100.00;101824.47;6203218;28;20061;-79
2022/07/05 04:18:03;;;;;;;2.47;1.08;;;;;;;14.75;100.00;101818.94;6203107;28;20046;-80
2022/07/05 04:21:06;;;;;;;5.55;1.42;;;;;;;14.75;100.00;101823.38;6192686;28;20043;-80
2022/07/05 04:24:08;;;;;;;2.75;1.65;;;;;;;14.82;100.00;101822.13;6179503;28;20047;-80
2022/07/05 04:27:12;;;;;;;1.63;1.33;;;;;;;14.87;100.00;101822.72;6202574;28;20072;-80
2022/07/05 04:30:14;;;;;;;1.35;0.98;;;;;;;14.94;100.00;101822.31;6202647;28;20417;-79
2022/07/05 04:33:15;;;;;;;1.95;1.42;;;;;;;14.97;100.00;101823.94;6202908;28;20046;-79
2022/07/05 04:36:16;;;;;;;1.30;0.85;;;;;;;14.94;100.00;101834.66;6202630;28;20066;-80
2022/07/05 04:39:20;;;;;;;1.60;1.35;;;;;;;14.93;100.00;101830.31;6202528;28;20057;-79
2022/07/05 04:42:22;;;;;;;2.10;1.45;;;;;;;14.95;100.00;101837.25;6202287;28;20065;-79
2022/07/05 04:45:24;;;;;;;1.15;0.93;;;;;;;14.94;100.00;101837.31;6201916;28;20057;-80
2022/07/05 04:48:25;;;;;;;3.08;1.40;;;;;;;14.93;100.00;101831.19;6202167;28;20050;-79
2022/07/05 04:51:27;;;;;;;2.30;1.13;;;;;;;14.91;100.00;101833.06;6201998;28;20054;-80
2022/07/05 04:54:28;;;;;;;2.15;1.75;;;;;;;14.89;100.00;101836.72;6202242;28;20050;-79
2022/07/05 04:57:38;;;;;;;1.38;1.10;;;;;;;14.92;100.00;101842.72;6202522;28;20046;-79
2022/07/05 05:00:40;;;;;;;1.75;1.38;;;;;;;14.96;100.00;101843.41;6201377;28;20084;-80
2022/07/05 05:03:41;;;;;;;2.17;1.10;;;;;;;15.07;100.00;101842.81;6201768;28;20073;-80
2022/07/05 05:06:42;;;;;;;1.10;0.90;;;;;;;15.16;100.00;101843.16;6201703;28;20062;-79
2022/07/05 05:09:44;;;;;;;2.67;1.40;;;;;;;15.26;100.00;101851.47;6201890;28;20065;-80
2022/07/05 05:12:46;;;;;;;1.52;1.20;;;;;;;15.30;100.00;101854.78;6202679;28;20046;-79
2022/07/05 05:15:48;;;;;;;1.98;1.20;;;;;;;15.34;100.00;101851.03;6201687;28;20064;-80
2022/07/05 05:18:49;;;;;;;1.33;1.23;;;;;;;15.34;100.00;101845.72;6192108;28;20070;-80
2022/07/05 05:21:50;;;;;;;1.52;1.23;;;;;;;15.28;100.00;101848.72;6177599;28;20084;-80
2022/07/05 05:24:52;;;;;;;2.75;1.20;;;;;;;15.33;100.00;101851.97;6177948;28;20058;-79
2022/07/05 05:27:54;;;;;;;1.98;1.20;;;;;;;15.38;100.00;101860.50;6177549;28;20054;-80
2022/07/05 05:30:56;;;;;;;1.10;1.00;;;;;;;15.42;100.00;101857.59;6177732;28;20069;-80
2022/07/05 05:33:57;;;;;;;1.60;1.10;;;;;;;15.44;100.00;101861.03;6177946;28;20422;-80
2022/07/05 05:36:58;;;;;;;1.52;1.20;;;;;;;15.43;100.00;101864.59;6178592;28;20046;-80
2022/07/05 05:39:59;;;;;;;1.20;1.10;;;;;;;15.41;100.00;101869.16;6178489;28;20046;-79
2022/07/05 05:43:02;;;;;;;2.63;1.60;;;;;;;15.46;100.00;101863.59;6178593;28;20061;-80
2022/07/05 05:46:04;;;;;;;4.57;2.38;;;;;;;15.50;100.00;101861.63;6177816;28;20054;-79
2022/07/05 05:49:05;;;;;;;1.85;1.38;;;;;;;15.57;100.00;101863.84;6192025;28;20053;-80
2022/07/05 05:52:06;;;;;;;1.98;1.30;;;;;;;15.59;100.00;101875.22;6202664;28;20046;-79
2022/07/05 05:55:08;;;;;;;3.97;1.60;;;;;;;15.56;100.00;101871.88;6206324;28;20061;-79
2022/07/05 05:58:16;;;;;;;1.92;1.30;;;;;;;15.59;100.00;101871.72;6206733;28;20522;-79
2022/07/05 06:01:17;;;;;;;4.47;1.10;;;;;;;15.63;100.00;101874.09;6206428;28;20061;-80
2022/07/05 06:04:19;;;;;;;3.33;1.00;;;;;;;15.70;100.00;101882.59;6206931;28;20046;-80
2022/07/05 06:07:20;;;;;;;3.95;1.60;;;;;;;15.72;100.00;101878.06;6206231;28;20053;-80
2022/07/05 06:10:23;;;;;;;2.17;1.40;;;;;;;15.76;100.00;101884.91;6206313;28;20050;-79
2022/07/05 06:13:27;;;;;;;2.30;1.33;;;;;;;15.82;100.00;101887.19;6206514;28;20046;-80
2022/07/05 06:16:29;;;;;;;2.15;1.58;;;;;;;15.85;100.00;101889.69;6206640;28;20136;-79
2022/07/05 06:19:30;;;;;;;1.45;1.20;;;;;;;15.89;100.00;101898.28;6186070;28;20047;-79
2022/07/05 06:22:31;;;;;;;2.80;1.30;;;;;;;15.98;100.00;101897.75;6182503;28;20054;-80
2022/07/05 06:25:33;;;;;;;0.68;0.68;;;;;;;16.11;98.24;101895.25;6182036;28;20051;-79
2022/07/05 06:28:36;;;;;;;1.30;0.80;;;;;;;16.24;89.07;101897.09;6181889;28;20055;-79
2022/07/05 06:31:38;;;;;;;1.60;0.70;;;;;;;16.32;87.63;101899.31;6182434;28;20057;-79
2022/07/05 06:34:39;;;;;;;3.55;0.70;;;;;;;16.39;85.33;101903.28;6180015;28;20042;-79
2022/07/05 06:37:42;;;;;;;4.90;0.77;;;;;;;16.39;83.64;101905.94;6181001;28;20458;-79
2022/07/05 06:40:43;;;;;;;4.45;1.00;;;;;;;16.38;85.69;101906.91;6180780;28;20201;-79
2022/07/05 06:43:46;;;;;;;0.75;0.68;;;;;;;16.44;86.28;101914.53;6197489;28;20054;-79
2022/07/05 06:46:47;;;;;;;1.25;0.60;;;;;;;16.46;82.39;101909.09;6204173;28;20061;-79
2022/07/05 06:49:49;;;;;;;1.00;0.55;;;;;;;16.55;81.46;101916.53;6185676;28;20050;-80
2022/07/05 06:52:50;;;;;;;0.82;0.70;;;;;;;16.58;79.81;101904.84;6204200;28;20050;-79
2022/07/05 06:55:51;;;;;;;2.55;0.50;;;;;;;16.65;79.90;101906.19;6203878;28;20062;-81
2022/07/05 06:58:54;;;;;;;0.90;0.52;;;;;;;16.66;78.12;101914.06;6204435;28;20043;-79
2022/07/05 07:01:55;;;;;;;0.70;0.60;;;;;;;16.77;77.13;101910.81;6204692;28;20498;-81
2022/07/05 07:04:57;;;;;;;0.52;0.52;;;;;;;16.84;77.82;101911.28;6204204;28;20050;-79
2022/07/05 07:11:18;;;;;;;1.20;0.60;;;;;;;16.94;75.31;101913.31;6205350;28;20506;-80
2022/07/05 07:14:21;;;;;;;0.40;0.40;;;;;;;16.97;72.66;101907.78;6204649;28;20086;-80
2022/07/05 07:17:22;;;;;;;1.42;0.50;;;;;;;17.06;69.43;101908.16;6200607;28;20422;-80
2022/07/05 07:20:24;;;;;;;1.15;0.50;;;;;;;17.13;69.86;101910.34;6203639;28;20498;-79
2022/07/05 07:23:25;;;;;;;0.40;0.40;;;;;;;17.22;68.95;101917.75;6204414;28;20050;-78
2022/07/05 07:26:27;;;;;;;1.75;0.70;;;;;;;17.23;70.15;101911.47;6200588;28;20057;-79
2022/07/05 07:29:30;;;;;;;0.88;0.47;;;;;;;17.27;70.23;101909.50;6204402;28;20073;-80
2022/07/05 07:32:31;;;;;;;1.95;0.47;;;;;;;17.35;69.05;101909.88;6204147;28;20434;-80
2022/07/05 07:35:33;;;;;;;1.15;0.28;;;;;;;17.42;68.11;101905.00;6203380;28;20054;-79
2022/07/05 07:38:34;;;;;;;0.30;0.30;;;;;;;17.44;67.02;101911.06;6203740;28;20050;-79
2022/07/05 07:41:35;;;;;;;0.75;0.75;;;;;;;17.39;66.12;101915.81;6204127;28;20054;-80
2022/07/05 07:44:38;;;;;;;0.65;0.60;;;;;;;17.43;67.78;101909.34;6203851;28;20050;-80
2022/07/05 07:47:39;;;;;;;0.95;0.35;;;;;;;17.52;67.47;101913.22;6200978;28;20065;-78
2022/07/05 07:50:41;;;;;;;0.60;0.40;;;;;;;17.59;66.36;101915.41;6203109;28;20046;-79
2022/07/05 07:53:42;;;;;;;0.47;0.45;;;;;;;17.67;66.63;101905.16;6203938;28;20065;-79
2022/07/05 07:56:44;;;;;;;1.75;0.82;;;;;;;17.77;65.48;101907.25;6204820;28;20050;-79
2022/07/05 07:59:47;;;;;;;1.10;0.47;;;;;;;17.78;64.41;101909.78;6205161;28;20046;-80
2022/07/05 08:02:48;;;;;;;0.30;0.30;;;;;;;17.90;63.26;101902.81;6204845;28;20054;-79
2022/07/05 08:05:49;;;;;;;0.40;0.40;;;;;;;18.00;65.35;101906.56;6204154;28;20426;-80
2022/07/05 08:08:50;;;;;;;1.23;0.50;;;;;;;18.15;65.10;101905.53;6205659;28;20057;-79
2022/07/05 08:11:52;;;;;;;1.20;0.70;;;;;;;18.15;62.83;101904.69;6204724;28;20050;-79
2022/07/05 08:14:54;;;;;;;0.20;0.20;;;;;;;18.07;61.84;101899.03;6198651;28;20055;-76
2022/07/05 08:21:35;;;;;;;0.50;0.50;;;;;;;18.28;59.72;101900.25;6199999;28;20046;-78
2022/07/05 08:24:37;;;;;;;1.13;0.68;;;;;;;18.33;58.98;101900.81;6198047;28;20418;-77
2022/07/05 08:27:38;;;;;;;0.30;0.30;;;;;;;18.31;60.34;101901.88;6195574;28;20053;-77
2022/07/05 08:30:41;;;;;;;0.25;0.25;;;;;;;18.30;58.50;101903.66;6196276;28;20057;-78
2022/07/05 08:33:42;;;;;;;0.20;0.20;;;;;;;18.31;58.12;101907.19;6198520;28;20054;-79
2022/07/05 08:36:43;;;;;;;1.33;0.30;;;;;;;18.27;59.08;101914.53;6199269;28;20061;-77
2022/07/05 08:39:45;;;;;;;0.90;0.50;;;;;;;18.36;59.29;101905.94;6200450;28;20046;-77
2022/07/05 08:42:47;;;;;;;0.88;0.28;;;;;;;18.50;56.36;101894.34;6201454;28;20054;-78
2022/07/05 08:45:50;;;;;;;0.77;0.50;;;;;;;18.58;56.10;101896.50;6198887;28;20061;-77
2022/07/05 08:48:52;;;;;;;0.30;0.30;;;;;;;18.55;57.83;101900.19;6200755;28;20513;-78
2022/07/05 08:51:55;;;;;;;0.43;0.30;;;;;;;18.42;58.16;101902.84;6200100;28;20047;-78
2022/07/05 08:54:57;;;;;;;0.30;0.28;;;;;;;18.48;58.26;101891.75;6199972;28;20057;-77
2022/07/05 08:57:59;;;;;;;1.10;0.60;;;;;;;18.66;56.56;101902.13;6199647;28;20051;-78
2022/07/05 09:01:02;;;;;;;0.30;0.30;;;;;;;18.77;56.16;101904.09;6200148;28;20073;-78
2022/07/05 09:04:06;;;;;;;0.30;0.30;;;;;;;18.72;54.84;101901.75;6200044;28;20502;-78
2022/07/05 09:07:09;;;;;;;0.30;0.30;;;;;;;18.65;55.53;101900.41;6200786;28;20061;-79
2022/07/05 09:10:12;;;;;;;0.32;0.32;;;;;;;18.63;55.40;101900.53;6199729;28;20046;-77
2022/07/05 09:13:13;;;;;;;1.20;0.60;;;;;;;18.78;56.88;101898.63;6200424;28;20062;-78
2022/07/05 09:16:16;;;;;;;2.80;0.50;;;;;;;18.78;56.63;101903.97;6198949;28;20058;-77
2022/07/05 09:19:18;;;;;;;0.35;0.32;;;;;;;18.65;56.53;101903.94;6201442;28;20450;-77
2022/07/05 09:22:19;;;;;;;0.57;0.32;;;;;;;18.67;56.45;101906.50;6203202;28;20061;-79
2022/07/05 09:25:23;;;;;;;3.33;0.40;;;;;;;18.87;55.75;101906.00;6203000;28;20498;-78
2022/07/05 09:28:24;;;;;;;1.10;1.00;;;;;;;19.12;54.68;101896.25;6210968;28;20057;-78
2022/07/05 09:31:31;;;;;;;1.20;0.70;;;;;;;19.12;55.77;101896.25;6210219;28;20047;-78
2022/07/05 09:34:34;;;;;;;2.17;0.38;;;;;;;19.07;55.57;101906.41;6209958;28;20054;-78
2022/07/05 09:37:44;;;;;;;0.50;0.30;;;;;;;18.92;55.60;101905.66;6209598;28;20058;-77
2022/07/05 09:40:48;;;;;;;0.20;0.20;;;;;;;18.87;55.32;101905.16;6209054;28;20100;-78
2022/07/05 09:43:50;;;;;;;0.20;0.10;;;;;;;18.97;55.64;101904.38;6209173;28;20510;-78
2022/07/05 09:47:07;;;;;;;0.90;0.63;;;;;;;19.23;54.17;101902.53;6196505;28;20054;-78
2022/07/05 09:50:09;;;;;;;0.43;0.35;;;;;;;19.22;53.33;101894.66;6185444;28;20546;-77
2022/07/05 09:53:11;;;;;;;1.55;0.52;;;;;;;19.23;54.27;101893.69;6186582;28;20066;-78
2022/07/05 09:56:13;;;;;;;0.40;0.40;;;;;;;19.34;53.54;101900.91;6186726;28;20478;-80
2022/07/05 09:59:20;;;;;;;2.65;0.68;;;;;;;19.50;52.13;101902.38;6187394;28;20054;-77
2022/07/05 10:02:35;;;;;;;3.70;0.88;;;;;;;19.53;53.77;101909.31;6186581;28;20050;-77
2022/07/05 10:05:36;;;;;;;4.13;0.70;;;;;;;19.84;52.79;101905.25;6186280;28;20505;-73
2022/07/05 10:08:38;;;;;;;0.52;0.30;;;;;;;20.06;52.76;101884.97;6195730;28;20054;-78
2022/07/05 10:11:43;;;;;;;0.38;0.30;;;;;;;19.96;53.93;101900.84;6207751;28;20050;-78
2022/07/05 10:14:45;;;;;;;2.78;0.35;;;;;;;19.74;52.94;101906.91;6209090;28;20057;-78
2022/07/05 10:17:53;;;;;;;0.32;0.32;;;;;;;19.54;53.45;101895.00;6188506;28;20057;-79
2022/07/05 10:20:55;;;;;;;0.40;0.40;;;;;;;19.55;51.89;101895.84;6202105;28;20406;-77
2022/07/05 10:23:56;;;;;;;0.35;0.35;;;;;;;19.82;50.98;101903.69;6209189;28;20418;-79
2022/07/05 10:26:58;;;;;;;1.45;0.40;;;;;;;19.95;50.71;101883.13;6264256;23;20057;-75
2022/07/05 10:30:00;;;;;;;0.22;0.22;;;;;;;19.92;49.79;101892.19;6207988;28;20492;-76
2022/07/05 10:33:04;;;;;;;1.65;0.40;;;;;;;19.89;50.90;101895.09;6221813;28;20056;-76
2022/07/05 10:36:10;;;;;;;0.28;0.28;;;;;;;19.88;51.88;101890.72;6229178;28;20076;-75
2022/07/05 10:39:11;;;;;;;0.47;0.47;;;;;;;19.75;52.50;101892.59;6225998;28;20494;-74
2022/07/05 10:42:15;;;;;;;0.95;0.30;;;;;;;19.73;52.82;101899.88;6225677;28;20053;-74
2022/07/05 10:45:25;;;;;;;1.27;0.32;;;;;;;19.67;53.15;101893.19;6223604;28;20046;-76
2022/07/05 10:48:29;;;;;;;0.30;0.30;;;;;;;19.72;54.12;101893.69;6225383;28;20061;-75
2022/07/05 10:51:36;;;;;;;3.05;0.68;;;;;;;20.16;53.62;101889.50;6225399;28;20046;-76
2022/07/05 10:55:18;;;;;;;1.52;0.28;;;;;;;20.29;48.36;101878.75;6225284;28;20061;-77
2022/07/05 10:58:21;;;;;;;0.35;0.30;;;;;;;20.67;48.19;101885.69;6225035;28;20061;-75
2022/07/05 11:01:33;;;;;;;0.95;0.28;;;;;;;20.44;48.29;101874.91;6224658;28;20093;-75
2022/07/05 11:04:38;;;;;;;1.85;0.40;;;;;;;20.23;49.22;101885.41;6224849;28;20056;-74
2022/07/05 11:07:58;;;;;;;0.43;0.30;;;;;;;20.09;47.42;101890.09;6225079;28;20538;-76
2022/07/05 11:11:10;;;;;;;0.50;0.50;;;;;;;20.06;47.26;101887.66;6224510;28;20054;-76
2022/07/05 11:14:30;;;;;;;0.43;0.43;;;;;;;19.85;49.02;101884.75;6224803;28;20060;-75
2022/07/05 11:17:34;;;;;;;0.32;0.32;;;;;;;19.88;50.20;101885.38;6200314;28;20426;-76
2022/07/05 11:20:37;;;;;;;1.17;0.90;;;;;;;19.99;49.39;101879.28;6200316;28;20053;-75
2022/07/05 11:23:39;;;;;;;1.00;0.30;;;;;;;20.09;50.56;101877.59;6200063;28;20062;-75
2022/07/05 11:26:40;;;;;;;0.52;0.40;;;;;;;20.26;50.98;101890.53;6200077;28;20055;-75
2022/07/05 11:29:42;;;;;;;1.48;0.50;;;;;;;20.33;49.65;101890.06;6199909;28;20449;-74
2022/07/05 11:32:44;;;;;;;0.55;0.40;;;;;;;20.31;49.56;101884.00;6200150;28;20072;-75
2022/07/05 11:35:47;;;;;;;0.40;0.40;;;;;;;20.42;50.17;101876.84;6199798;28;20047;-75
2022/07/05 11:39:12;;;;;;;0.82;0.52;;;;;;;20.84;46.75;101889.69;6199986;28;20427;-74
2022/07/05 11:42:21;;;;;;;0.40;0.40;;;;;;;21.67;45.74;101883.94;6199559;28;20141;-74
2022/07/05 11:45:22;;;;;;;0.40;0.40;;;;;;;21.43;46.19;101884.09;6200952;28;20061;-75
2022/07/05 11:48:24;;;;;;;2.78;0.47;;;;;;;20.95;46.86;101874.50;6199814;28;20057;-75
2022/07/05 11:51:27;;;;;;;1.70;0.38;;;;;;;20.69;48.53;101873.88;6198488;28;20054;-76
2022/07/05 11:54:30;;;;;;;0.30;0.30;;;;;;;20.52;48.92;101874.34;6199426;28;20058;-75
2022/07/05 11:57:32;;;;;;;0.47;0.40;;;;;;;20.47;50.02;101876.47;6199471;28;20050;-75
2022/07/05 12:00:35;;;;;;;3.45;0.88;;;;;;;20.37;50.43;101888.84;6199290;28;20053;-74
2022/07/05 12:03:39;;;;;;;0.90;0.40;;;;;;;20.34;50.76;101878.41;6199425;28;20108;-75
2022/07/05 12:06:44;;;;;;;0.60;0.60;;;;;;;20.47;51.69;101876.47;6199257;28;20096;-75
2022/07/05 12:13:06;;;;;;;0.93;0.50;;;;;;;21.67;47.41;101876.75;6223156;28;20042;-75
2022/07/05 12:16:08;;;;;;;0.47;0.30;;;;;;;21.69;47.99;101865.91;6204805;28;20054;-73
2022/07/05 12:19:09;;;;;;;1.85;0.60;;;;;;;21.55;47.77;101864.38;6203194;28;20489;-74
2022/07/05 12:22:12;;;;;;;2.92;0.60;;;;;;;21.21;48.22;101864.41;6223164;28;20052;-76
2022/07/05 12:25:16;;;;;;;1.95;0.60;;;;;;;21.34;47.69;101858.94;6223267;28;20553;-75
2022/07/05 12:28:18;;;;;;;0.40;0.40;;;;;;;21.81;47.28;101854.19;6222924;28;20061;-73
2022/07/05 12:31:20;;;;;;;0.98;0.60;;;;;;;22.41;44.74;101857.19;6223074;28;20476;-74
2022/07/05 12:34:22;;;;;;;0.85;0.50;;;;;;;22.51;41.50;101852.75;6222863;28;20049;-74
2022/07/05 12:37:29;;;;;;;0.43;0.43;;;;;;;22.16;41.29;101848.56;6223004;28;20046;-74
2022/07/05 12:40:30;;;;;;;1.35;0.32;;;;;;;22.24;45.69;101854.13;6222623;28;20050;-72
2022/07/05 12:43:32;;;;;;;0.70;0.40;;;;;;;22.22;46.31;101855.25;6222170;28;20053;-74
2022/07/05 12:46:37;;;;;;;0.47;0.40;;;;;;;21.73;46.97;101864.69;6222297;28;20062;-73
2022/07/05 12:49:53;;;;;;;0.50;0.40;;;;;;;21.41;47.87;101860.16;6222748;28;20084;-73
2022/07/05 12:59:58;;;;;;;1.50;0.60;;;;;;;20.78;49.76;101861.63;6222414;28;20058;-74
2022/07/05 13:02:59;;;;;;;1.05;0.50;;;;;;;21.05;49.74;101873.78;6222025;28;20050;-74
2022/07/05 13:06:02;;;;;;;1.02;0.68;;;;;;;21.33;48.46;101865.25;6222248;28;20053;-76
2022/07/05 13:09:05;;;;;;;0.57;0.50;;;;;;;21.28;47.65;101854.06;6222231;28;20477;-76
2022/07/05 13:12:11;;;;;;;0.90;0.65;;;;;;;21.22;48.35;101854.56;6222221;28;20046;-76
2022/07/05 13:15:12;;;;;;;1.50;0.43;;;;;;;21.19;47.94;101862.81;6206362;28;20120;-75
2022/07/05 13:18:24;;;;;;;3.00;0.60;;;;;;;21.14;47.98;101852.50;6197795;28;20046;-75
2022/07/05 13:21:25;;;;;;;0.40;0.40;;;;;;;21.24;48.96;101857.97;6197662;28;20050;-74
2022/07/05 13:24:29;;;;;;;1.63;0.55;;;;;;;21.37;48.38;101853.34;6197611;28;20055;-75
2022/07/05 13:27:30;;;;;;;2.25;0.30;;;;;;;21.63;47.17;101864.59;6197621;28;20051;-75
2022/07/05 13:30:32;;;;;;;0.70;0.40;;;;;;;22.58;46.01;101853.09;6197647;28;20057;-72
2022/07/05 13:33:33;;;;;;;0.30;0.30;;;;;;;22.83;44.16;101849.94;6197597;28;20077;-72
2022/07/05 13:36:34;;;;;;;5.07;1.00;;;;;;;23.03;44.73;101846.41;6197556;28;20053;-72
2022/07/05 13:39:39;;;;;;;5.05;0.40;;;;;;;23.14;42.35;101849.94;6197656;28;20058;-72
2022/07/05 13:42:41;;;;;;;0.57;0.50;;;;;;;22.82;43.63;101850.94;6197329;28;20382;-72
2022/07/05 13:45:42;;;;;;;1.58;0.50;;;;;;;22.73;40.73;101851.72;6198650;28;20061;-72
2022/07/05 13:48:43;;;;;;;0.75;0.30;;;;;;;22.43;42.01;101856.06;6197277;28;20418;-72
2022/07/05 13:51:45;;;;;;;1.75;0.43;;;;;;;22.37;42.21;101847.72;6197583;28;20057;-73
2022/07/05 13:54:47;;;;;;;0.85;0.52;;;;;;;22.57;41.90;101846.84;6197361;28;20050;-73
2022/07/05 13:57:49;;;;;;;0.85;0.60;;;;;;;23.07;41.73;101841.59;6197455;28;20047;-74
2022/07/05 14:00:50;;;;;;;0.47;0.32;;;;;;;22.87;41.66;101835.28;6197222;28;20054;-73
2022/07/05 14:03:52;;;;;;;0.55;0.50;;;;;;;22.34;41.32;101838.13;6197206;28;20054;-73
2022/07/05 14:06:53;;;;;;;0.38;0.38;;;;;;;22.54;42.95;101833.72;6198747;28;20077;-74
2022/07/05 14:09:56;;;;;;;0.65;0.50;;;;;;;22.46;42.71;101831.72;6237173;28;20056;-73
2022/07/05 14:12:57;;;;;;;1.63;0.40;;;;;;;22.51;42.64;101832.16;6227303;28;20050;-72
2022/07/05 14:15:58;;;;;;;0.77;0.47;;;;;;;22.49;43.26;101831.44;6229979;28;20054;-73
2022/07/05 14:19:00;;;;;;;0.45;0.45;;;;;;;22.24;43.74;101827.34;6226152;28;20429;-73
2022/07/05 14:22:01;;;;;;;0.45;0.45;;;;;;;22.10;44.83;101826.81;6225858;28;20038;-72